createdAt,value
2022-10-29T00:01:27.106Z,6.36
2022-10-29T00:02:58.691Z,6.74
2022-10-29T00:04:30.275Z,6.62
2022-10-29T00:06:01.693Z,6.37
2022-10-29T00:07:33.196Z,6.26
2022-10-29T00:09:04.706Z,6.82
2022-10-29T00:10:36.173Z,6.44
2022-10-29T00:12:07.615Z,6.70
2022-10-29T00:13:38.997Z,6.67
2022-10-29T00:15:10.877Z,6.74
2022-10-29T00:16:42.242Z,6.20
2022-10-29T00:18:13.656Z,6.32
2022-10-29T00:19:45.082Z,6.57
2022-10-29T00:21:16.605Z,6.08
2022-10-29T00:22:47.972Z,6.88
2022-10-29T00:24:19.419Z,6.37
2022-10-29T00:25:50.773Z,6.40
2022-10-29T00:27:27.170Z,6.26
2022-10-29T00:28:58.642Z,6.91
2022-10-29T00:30:30.027Z,6.37
2022-10-29T00:32:01.586Z,6.43
2022-10-29T00:33:32.981Z,6.71
2022-10-29T00:35:04.416Z,6.73
2022-10-29T00:36:35.872Z,6.69
2022-10-29T00:38:07.336Z,7.32
2022-10-29T00:39:38.770Z,6.19
2022-10-29T00:41:10.309Z,6.87
2022-10-29T00:42:41.863Z,6.63
2022-10-29T00:44:13.224Z,6.40
2022-10-29T00:45:44.597Z,6.51
2022-10-29T00:47:16.024Z,6.59
2022-10-29T00:48:47.509Z,6.70
2022-10-29T00:50:19.349Z,7.10
2022-10-29T00:51:50.713Z,6.49
2022-10-29T00:53:22.228Z,6.98
2022-10-29T00:54:53.612Z,7.17
2022-10-29T00:56:24.940Z,6.75
2022-10-29T00:57:56.867Z,7.24
2022-10-29T00:59:28.531Z,6.61
2022-10-29T01:01:04.892Z,6.90
2022-10-29T01:02:36.559Z,6.92
2022-10-29T01:04:08.075Z,6.76
2022-10-29T01:05:39.474Z,6.70
2022-10-29T01:07:10.943Z,7.30
2022-10-29T01:08:42.360Z,6.50
2022-10-29T01:10:13.854Z,7.52
2022-10-29T01:11:45.321Z,7.07
2022-10-29T01:14:48.118Z,6.76
2022-10-29T01:16:25.190Z,6.42
2022-10-29T01:17:57.315Z,6.98
2022-10-29T01:19:29.278Z,6.69
2022-10-29T01:21:00.731Z,6.51
2022-10-29T01:22:42.128Z,6.60
2022-10-29T01:24:13.461Z,6.81
2022-10-29T01:25:44.968Z,7.10
2022-10-29T01:27:16.585Z,6.89
2022-10-29T01:28:47.923Z,7.07
2022-10-29T01:30:19.363Z,6.38
2022-10-29T01:31:50.743Z,7.02
2022-10-29T01:33:22.227Z,7.07
2022-10-29T01:34:53.808Z,6.89
2022-10-29T01:36:25.203Z,7.11
2022-10-29T01:37:56.700Z,6.74
2022-10-29T01:39:28.037Z,6.53
2022-10-29T01:41:04.475Z,6.64
2022-10-29T01:42:36.193Z,6.87
2022-10-29T01:44:07.587Z,6.86
2022-10-29T01:45:38.971Z,6.71
2022-10-29T01:47:10.379Z,6.88
2022-10-29T01:48:41.873Z,6.99
2022-10-29T01:50:13.265Z,6.86
2022-10-29T01:51:44.815Z,7.14
2022-10-29T01:53:17.349Z,6.77
2022-10-29T01:54:48.698Z,7.31
2022-10-29T01:56:20.141Z,7.01
2022-10-29T01:57:51.917Z,7.09
2022-10-29T01:59:35.742Z,7.31
2022-10-29T02:01:14.844Z,7.61
2022-10-29T02:02:48.553Z,7.18
2022-10-29T02:04:20.117Z,7.21
2022-10-29T02:05:51.478Z,6.83
2022-10-29T02:07:23.060Z,7.19
2022-10-29T02:08:54.503Z,6.84
2022-10-29T02:10:25.900Z,7.06
2022-10-29T02:11:57.749Z,6.33
2022-10-29T02:13:29.135Z,6.92
2022-10-29T02:15:00.466Z,7.24
2022-10-29T02:16:31.796Z,6.63
2022-10-29T02:18:03.210Z,6.75
2022-10-29T02:19:36.789Z,6.83
2022-10-29T02:21:08.096Z,7.13
2022-10-29T02:22:39.540Z,6.84
2022-10-29T02:24:11.029Z,7.24
2022-10-29T02:25:42.725Z,7.36
2022-10-29T02:27:14.165Z,7.45
2022-10-29T02:28:45.659Z,6.95
2022-10-29T02:30:17.088Z,7.07
2022-10-29T02:31:48.651Z,7.75
2022-10-29T02:33:20.054Z,6.82
2022-10-29T02:34:51.421Z,7.43
2022-10-29T02:36:22.878Z,7.04
2022-10-29T02:37:55.486Z,7.51
2022-10-29T02:39:26.818Z,7.83
2022-10-29T02:40:58.171Z,7.73
2022-10-29T02:42:29.706Z,7.26
2022-10-29T02:44:05.995Z,7.53
2022-10-29T02:45:37.777Z,7.44
2022-10-29T02:47:10.255Z,6.91
2022-10-29T02:48:41.855Z,7.79
2022-10-29T02:50:13.228Z,7.60
2022-10-29T02:51:44.832Z,7.03
2022-10-29T02:53:16.270Z,6.93
2022-10-29T02:54:47.680Z,7.82
2022-10-29T02:56:19.212Z,9.94
2022-10-29T02:57:50.748Z,11.48
2022-10-29T02:59:22.200Z,8.94
2022-10-29T03:00:53.628Z,8.31
2022-10-29T03:02:25.261Z,7.52
2022-10-29T03:03:56.684Z,7.55
2022-10-29T03:05:33.173Z,7.47
2022-10-29T03:07:04.693Z,6.64
2022-10-29T03:08:36.138Z,7.02
2022-10-29T03:10:07.586Z,7.18
2022-10-29T03:11:39.331Z,6.96
2022-10-29T03:13:10.711Z,7.05
2022-10-29T03:14:42.078Z,7.29
2022-10-29T03:16:13.786Z,6.85
2022-10-29T03:17:45.256Z,7.46
2022-10-29T03:19:16.567Z,7.58
2022-10-29T03:20:47.898Z,7.45
2022-10-29T03:22:19.225Z,7.04
2022-10-29T03:23:50.682Z,7.25
2022-10-29T03:25:22.032Z,7.75
2022-10-29T03:26:53.447Z,7.90
2022-10-29T03:28:24.756Z,7.40
2022-10-29T03:30:01.115Z,7.53
2022-10-29T03:31:32.620Z,7.58
2022-10-29T03:33:03.938Z,7.36
2022-10-29T03:34:35.673Z,7.23
2022-10-29T03:36:07.267Z,7.52
2022-10-29T03:37:38.640Z,7.40
2022-10-29T03:39:10.050Z,7.52
2022-10-29T03:40:41.385Z,7.16
2022-10-29T03:42:12.783Z,6.91
2022-10-29T03:43:44.327Z,7.31
2022-10-29T03:45:20.970Z,7.33
2022-10-29T03:46:52.470Z,7.22
2022-10-29T03:48:23.839Z,7.08
2022-10-29T03:49:55.337Z,7.78
2022-10-29T03:51:26.753Z,7.68
2022-10-29T03:52:58.062Z,6.88
2022-10-29T03:54:29.381Z,7.37
2022-10-29T03:56:05.951Z,7.51
2022-10-29T03:57:37.526Z,7.21
2022-10-29T04:00:40.403Z,6.65
2022-10-29T04:02:11.964Z,7.67
2022-10-29T04:03:43.704Z,7.57
2022-10-29T04:05:15.251Z,7.01
2022-10-29T04:06:46.649Z,7.40
2022-10-29T04:08:18.168Z,7.37
2022-10-29T04:09:49.479Z,7.25
2022-10-29T04:11:21.075Z,7.53
2022-10-29T04:12:52.796Z,7.95
2022-10-29T04:14:24.972Z,7.44
2022-10-29T04:16:01.538Z,7.70
2022-10-29T04:17:32.929Z,7.83
2022-10-29T04:19:04.297Z,8.14
2022-10-29T04:21:22.477Z,7.81
2022-10-29T04:27:49.333Z,7.54
2022-10-29T04:30:08.583Z,7.50
2022-10-29T04:31:39.952Z,8.06
2022-10-29T04:33:11.344Z,7.65
2022-10-29T04:34:42.965Z,7.48
2022-10-29T04:36:14.344Z,7.91
2022-10-29T04:37:45.740Z,7.76
2022-10-29T04:39:23.425Z,8.17
2022-10-29T04:40:55.234Z,7.91
2022-10-29T04:42:26.859Z,7.20
2022-10-29T04:43:58.285Z,7.58
2022-10-29T04:45:29.778Z,7.38
2022-10-29T04:47:01.365Z,7.59
2022-10-29T04:48:32.881Z,7.75
2022-10-29T04:50:04.357Z,7.33
2022-10-29T04:51:36.194Z,7.74
2022-10-29T04:53:07.727Z,7.53
2022-10-29T04:54:39.073Z,7.71
2022-10-29T04:56:10.465Z,7.57
2022-10-29T04:57:42.202Z,7.22
2022-10-29T04:59:13.528Z,7.56
2022-10-29T05:00:45.117Z,8.24
2022-10-29T05:02:16.656Z,7.88
2022-10-29T05:03:48.466Z,7.50
2022-10-29T05:05:19.806Z,7.67
2022-10-29T05:06:51.119Z,7.43
2022-10-29T05:08:22.556Z,7.70
2022-10-29T05:09:53.892Z,7.47
2022-10-29T05:11:25.512Z,8.02
2022-10-29T05:12:57.490Z,7.28
2022-10-29T05:14:29.055Z,7.41
2022-10-29T05:16:00.499Z,7.82
2022-10-29T05:17:32.105Z,7.22
2022-10-29T05:19:08.548Z,7.53
2022-10-29T05:20:39.947Z,7.49
2022-10-29T05:22:11.391Z,7.07
2022-10-29T05:23:42.864Z,7.33
2022-10-29T05:25:15.621Z,7.52
2022-10-29T05:26:47.088Z,7.59
2022-10-29T05:28:18.579Z,7.19
2022-10-29T05:29:49.981Z,7.36
2022-10-29T05:31:21.404Z,7.21
2022-10-29T05:32:53.182Z,7.30
2022-10-29T05:34:24.796Z,7.31
2022-10-29T05:35:56.264Z,8.11
2022-10-29T05:37:27.690Z,7.27
2022-10-29T05:38:59.103Z,7.57
2022-10-29T05:40:30.626Z,7.68
2022-10-29T05:42:02.159Z,7.25
2022-10-29T05:43:33.878Z,7.17
2022-10-29T05:45:05.207Z,6.82
2022-10-29T05:46:36.550Z,7.06
2022-10-29T05:48:07.954Z,6.96
2022-10-29T05:49:49.475Z,7.84
2022-10-29T05:51:21.202Z,7.58
2022-10-29T05:52:52.962Z,7.29
2022-10-29T05:54:24.863Z,7.40
2022-10-29T05:55:56.335Z,7.06
2022-10-29T05:57:27.872Z,6.91
2022-10-29T05:58:59.311Z,7.02
2022-10-29T06:00:30.707Z,7.30
2022-10-29T06:02:02.365Z,7.24
2022-10-29T06:03:34.046Z,7.26
2022-10-29T06:05:05.657Z,7.26
2022-10-29T06:06:37.042Z,7.00
2022-10-29T06:08:08.774Z,7.09
2022-10-29T06:09:40.096Z,7.91
2022-10-29T06:11:11.399Z,7.37
2022-10-29T06:12:42.760Z,7.17
2022-10-29T06:14:14.675Z,7.08
2022-10-29T06:15:46.235Z,7.45
2022-10-29T06:17:27.620Z,7.12
2022-10-29T06:18:59.193Z,6.68
2022-10-29T06:20:30.588Z,6.97
2022-10-29T06:22:02.052Z,7.87
2022-10-29T06:23:33.576Z,7.20
2022-10-29T06:25:04.959Z,7.24
2022-10-29T06:26:36.390Z,6.85
2022-10-29T06:28:07.863Z,7.01
2022-10-29T06:29:39.242Z,7.00
2022-10-29T06:31:11.850Z,6.83
2022-10-29T06:32:43.390Z,6.82
2022-10-29T06:34:15.049Z,6.74
2022-10-29T06:35:46.623Z,7.08
2022-10-29T06:37:18.271Z,6.84
2022-10-29T06:38:49.954Z,8.11
2022-10-29T06:40:21.472Z,7.04
2022-10-29T06:41:52.972Z,7.19
2022-10-29T06:43:24.616Z,6.91
2022-10-29T06:44:56.253Z,6.66
2022-10-29T06:46:27.887Z,7.18
2022-10-29T06:47:59.904Z,7.20
2022-10-29T06:49:31.600Z,6.84
2022-10-29T06:51:02.910Z,6.61
2022-10-29T06:52:34.357Z,6.71
2022-10-29T06:54:05.850Z,7.46
2022-10-29T06:55:37.309Z,6.72
2022-10-29T06:57:08.753Z,6.58
2022-10-29T06:58:40.399Z,6.96
2022-10-29T07:00:11.826Z,6.49
2022-10-29T07:01:43.291Z,6.96
2022-10-29T07:03:14.984Z,6.43
2022-10-29T07:04:46.518Z,6.67
2022-10-29T07:06:18.243Z,7.09
2022-10-29T07:07:50.319Z,7.17
2022-10-29T07:09:21.809Z,7.34
2022-10-29T07:10:53.473Z,6.72
2022-10-29T07:12:24.888Z,6.95
2022-10-29T07:13:56.314Z,7.05
2022-10-29T07:15:30.503Z,6.61
2022-10-29T07:17:02.458Z,6.75
2022-10-29T07:18:33.929Z,6.04
2022-10-29T07:20:05.521Z,6.75
2022-10-29T07:21:37.199Z,6.78
2022-10-29T07:23:08.720Z,6.87
2022-10-29T07:24:40.083Z,6.31
2022-10-29T07:26:11.593Z,6.40
2022-10-29T07:27:43.084Z,6.61
2022-10-29T07:29:14.510Z,6.32
2022-10-29T07:30:45.995Z,6.36
2022-10-29T07:32:17.382Z,6.52
2022-10-29T07:33:48.930Z,6.13
2022-10-29T07:35:20.332Z,6.20
2022-10-29T07:36:51.845Z,6.42
2022-10-29T07:38:23.554Z,6.49
2022-10-29T07:39:54.972Z,6.54
2022-10-29T07:41:26.515Z,6.81
2022-10-29T07:42:58.290Z,6.44
2022-10-29T07:44:30.054Z,6.47
2022-10-29T07:46:01.462Z,6.46
2022-10-29T07:47:32.905Z,6.35
2022-10-29T07:49:04.484Z,6.61
2022-10-29T07:50:35.866Z,6.01
2022-10-29T07:52:07.186Z,6.27
2022-10-29T07:53:38.560Z,6.32
2022-10-29T07:55:09.983Z,5.98
2022-10-29T07:56:45.107Z,6.14
2022-10-29T07:58:19.170Z,6.95
2022-10-29T07:59:55.800Z,6.42
2022-10-29T08:01:27.346Z,5.62
2022-10-29T08:02:58.895Z,6.15
2022-10-29T08:04:30.418Z,5.71
2022-10-29T08:06:01.855Z,5.47
2022-10-29T08:07:33.276Z,6.16
2022-10-29T08:09:05.009Z,5.75
2022-10-29T08:10:36.514Z,5.66
2022-10-29T08:12:08.118Z,5.33
2022-10-29T08:13:39.501Z,5.33
2022-10-29T08:15:11.239Z,5.73
2022-10-29T08:16:42.633Z,5.64
2022-10-29T08:18:14.109Z,5.33
2022-10-29T08:19:45.641Z,5.37
2022-10-29T08:21:17.246Z,5.64
2022-10-29T08:22:48.881Z,5.63
2022-10-29T08:24:20.533Z,5.60
2022-10-29T08:25:52.102Z,5.45
2022-10-29T08:27:23.490Z,5.81
2022-10-29T08:28:56.294Z,5.30
2022-10-29T08:30:27.741Z,5.77
2022-10-29T08:31:59.237Z,5.06
2022-10-29T08:33:30.672Z,5.35
2022-10-29T08:35:02.049Z,5.96
2022-10-29T08:36:34.620Z,5.26
2022-10-29T08:38:06.050Z,5.02
2022-10-29T08:39:37.655Z,5.05
2022-10-29T08:41:09.003Z,4.79
2022-10-29T08:42:40.402Z,5.21
2022-10-29T08:44:11.867Z,5.37
2022-10-29T08:45:43.391Z,5.09
2022-10-29T08:47:14.823Z,5.00
2022-10-29T08:48:46.328Z,5.04
2022-10-29T08:50:17.830Z,4.81
2022-10-29T08:51:49.254Z,4.68
2022-10-29T08:53:35.818Z,4.93
2022-10-29T08:55:07.430Z,5.14
2022-10-29T08:56:38.904Z,5.66
2022-10-29T08:58:10.415Z,5.25
2022-10-29T08:59:42.038Z,5.32
2022-10-29T09:01:13.665Z,4.84
2022-10-29T09:02:45.340Z,5.00
2022-10-29T09:04:17.071Z,5.07
2022-10-29T09:05:48.675Z,4.86
2022-10-29T09:07:20.409Z,5.06
2022-10-29T09:08:52.224Z,5.02
2022-10-29T09:10:23.684Z,5.15
2022-10-29T09:11:55.217Z,4.77
2022-10-29T09:13:26.596Z,4.37
2022-10-29T09:15:08.002Z,5.56
2022-10-29T09:18:12.049Z,5.00
2022-10-29T09:19:44.260Z,4.82
2022-10-29T09:21:15.751Z,4.66
2022-10-29T09:22:47.208Z,4.95
2022-10-29T09:24:18.573Z,4.72
2022-10-29T09:25:50.069Z,4.65
2022-10-29T09:27:21.637Z,4.43
2022-10-29T09:28:53.010Z,4.46
2022-10-29T09:30:24.433Z,4.75
2022-10-29T09:31:55.882Z,4.43
2022-10-29T09:33:27.325Z,4.29
2022-10-29T09:34:58.972Z,4.27
2022-10-29T09:36:30.506Z,4.64
2022-10-29T09:38:01.966Z,4.44
2022-10-29T09:39:34.308Z,4.45
2022-10-29T09:41:05.970Z,4.38
2022-10-29T09:42:37.397Z,4.59
2022-10-29T09:44:08.879Z,4.74
2022-10-29T09:45:40.639Z,4.36
2022-10-29T09:47:12.499Z,4.33
2022-10-29T09:48:44.130Z,4.02
2022-10-29T09:50:15.801Z,4.40
2022-10-29T09:51:47.514Z,3.79
2022-10-29T09:53:19.023Z,4.44
2022-10-29T09:54:50.420Z,4.59
2022-10-29T09:56:22.099Z,5.20
2022-10-29T09:57:53.832Z,4.45
2022-10-29T09:59:30.698Z,4.07
2022-10-29T10:01:02.153Z,4.49
2022-10-29T10:02:33.736Z,4.69
2022-10-29T10:04:05.222Z,4.79
2022-10-29T10:05:41.672Z,4.06
2022-10-29T10:07:14.489Z,4.28
2022-10-29T10:08:51.327Z,4.78
2022-10-29T10:10:22.747Z,4.11
2022-10-29T10:11:54.185Z,4.18
2022-10-29T10:13:27.466Z,3.84
2022-10-29T10:14:59.543Z,4.63
2022-10-29T10:16:36.232Z,4.52
2022-10-29T10:18:07.637Z,4.34
2022-10-29T10:19:39.495Z,4.39
2022-10-29T10:21:10.868Z,4.40
2022-10-29T10:22:42.429Z,4.09
2022-10-29T10:24:14.035Z,4.04
2022-10-29T10:25:45.651Z,4.42
2022-10-29T10:27:17.142Z,3.90
2022-10-29T10:28:48.898Z,4.04
2022-10-29T10:30:20.385Z,4.14
2022-10-29T10:31:51.891Z,4.16
2022-10-29T10:35:04.950Z,4.37
2022-10-29T10:36:36.399Z,4.27
2022-10-29T10:38:07.793Z,4.22
2022-10-29T10:39:39.359Z,4.01
2022-10-29T10:41:11.064Z,4.35
2022-10-29T10:42:42.919Z,4.33
2022-10-29T10:44:14.446Z,4.99
2022-10-29T10:45:45.988Z,4.39
2022-10-29T10:47:17.709Z,4.05
2022-10-29T10:48:49.148Z,4.32
2022-10-29T10:50:20.599Z,4.51
2022-10-29T10:51:52.281Z,4.36
2022-10-29T10:53:23.819Z,4.46
2022-10-29T10:54:55.225Z,4.07
2022-10-29T10:56:26.655Z,4.20
2022-10-29T10:57:58.085Z,4.30
2022-10-29T10:59:29.536Z,4.11
2022-10-29T11:01:01.186Z,4.05
2022-10-29T11:02:33.044Z,4.26
2022-10-29T11:04:04.655Z,4.08
2022-10-29T11:05:36.159Z,4.00
2022-10-29T11:07:07.572Z,4.20
2022-10-29T11:08:39.156Z,4.19
2022-10-29T11:10:10.659Z,4.18
2022-10-29T11:11:42.253Z,4.34
2022-10-29T11:13:13.823Z,4.18
2022-10-29T11:14:45.515Z,4.04
2022-10-29T11:16:17.232Z,4.46
2022-10-29T11:17:53.929Z,4.56
2022-10-29T11:19:25.873Z,4.07
2022-10-29T11:20:57.630Z,4.15
2022-10-29T11:22:29.093Z,4.36
2022-10-29T11:24:00.606Z,3.97
2022-10-29T11:25:32.084Z,3.91
2022-10-29T11:27:03.533Z,4.36
2022-10-29T11:28:35.413Z,4.00
2022-10-29T11:30:07.311Z,4.07
2022-10-29T11:31:39.140Z,3.87
2022-10-29T11:33:10.919Z,3.98
2022-10-29T11:34:42.541Z,4.03
2022-10-29T11:36:13.982Z,4.28
2022-10-29T11:37:45.769Z,4.04
2022-10-29T11:39:17.352Z,3.83
2022-10-29T11:40:48.873Z,3.68
2022-10-29T11:42:20.556Z,3.92
2022-10-29T11:43:52.362Z,3.93
2022-10-29T11:45:24.209Z,3.99
2022-10-29T11:47:05.981Z,4.29
2022-10-29T11:48:37.679Z,4.22
2022-10-29T11:50:09.261Z,3.77
2022-10-29T11:51:41.028Z,3.97
2022-10-29T11:53:12.714Z,4.80
2022-10-29T11:54:44.189Z,4.37
2022-10-29T11:56:15.957Z,3.90
2022-10-29T11:57:47.769Z,3.82
2022-10-29T11:59:19.244Z,3.88
2022-10-29T12:00:50.733Z,3.93
2022-10-29T12:02:24.615Z,4.19
2022-10-29T12:03:56.381Z,4.11
2022-10-29T12:05:27.898Z,4.10
2022-10-29T12:06:59.400Z,4.19
2022-10-29T12:08:30.878Z,3.94
2022-10-29T12:10:02.538Z,4.19
2022-10-29T12:11:37.779Z,4.10
2022-10-29T12:13:12.042Z,4.07
2022-10-29T12:14:53.522Z,3.91
2022-10-29T12:16:25.131Z,4.59
2022-10-29T12:17:57.101Z,4.74
2022-10-29T12:19:28.905Z,4.31
2022-10-29T12:21:00.475Z,4.36
2022-10-29T12:22:31.980Z,4.08
2022-10-29T12:24:03.450Z,4.30
2022-10-29T12:25:35.068Z,4.00
2022-10-29T12:27:06.542Z,4.03
2022-10-29T12:28:38.264Z,4.26
2022-10-29T12:30:09.980Z,4.42
2022-10-29T12:31:41.500Z,3.94
2022-10-29T12:33:12.996Z,4.05
2022-10-29T12:34:54.802Z,4.09
2022-10-29T12:36:26.513Z,3.80
2022-10-29T12:37:58.453Z,4.04
2022-10-29T12:39:30.415Z,4.02
2022-10-29T12:41:34.567Z,4.09
2022-10-29T12:43:06.112Z,4.00
2022-10-29T12:44:40.035Z,4.09
2022-10-29T12:46:20.490Z,3.83
2022-10-29T12:47:53.388Z,3.66
2022-10-29T12:49:25.875Z,4.00
2022-10-29T12:51:02.462Z,4.18
2022-10-29T12:52:34.283Z,4.02
2022-10-29T12:54:05.853Z,3.99
2022-10-29T12:55:37.559Z,4.28
2022-10-29T12:57:09.570Z,4.02
2022-10-29T12:58:41.423Z,3.87
2022-10-29T13:00:18.037Z,4.03
2022-10-29T13:02:10.376Z,3.94
2022-10-29T13:03:43.761Z,4.21
2022-10-29T13:05:15.355Z,4.05
2022-10-29T13:06:47.228Z,4.01
2022-10-29T13:08:18.864Z,3.88
2022-10-29T13:09:50.475Z,3.95
2022-10-29T13:11:22.180Z,3.82
2022-10-29T13:12:53.905Z,5.97
2022-10-29T13:14:25.929Z,4.45
2022-10-29T13:15:57.603Z,4.56
2022-10-29T13:17:29.153Z,4.36
2022-10-29T13:19:00.801Z,4.05
2022-10-29T13:20:32.316Z,3.71
2022-10-29T13:22:03.764Z,3.98
2022-10-29T13:23:35.376Z,3.69
2022-10-29T13:25:06.828Z,3.84
2022-10-29T13:26:38.600Z,4.20
2022-10-29T13:28:11.325Z,3.88
2022-10-29T13:29:48.114Z,3.72
2022-10-29T13:31:19.920Z,4.14
2022-10-29T13:32:51.615Z,3.87
2022-10-29T13:34:23.110Z,3.95
2022-10-29T13:35:54.876Z,3.94
2022-10-29T13:37:26.360Z,3.88
2022-10-29T13:39:06.480Z,4.11
2022-10-29T13:40:38.842Z,3.89
2022-10-29T13:42:10.291Z,4.21
2022-10-29T13:43:41.865Z,3.98
2022-10-29T13:45:13.330Z,3.71
2022-10-29T13:46:45.882Z,3.73
2022-10-29T13:48:17.892Z,4.26
2022-10-29T13:49:49.456Z,4.17
2022-10-29T13:51:21.332Z,3.94
2022-10-29T13:52:58.404Z,3.53
2022-10-29T13:54:30.716Z,3.75
2022-10-29T13:56:02.280Z,3.97
2022-10-29T13:57:34.022Z,4.05
2022-10-29T13:59:06.110Z,3.78
2022-10-29T14:00:37.613Z,3.63
2022-10-29T14:02:09.432Z,3.76
2022-10-29T14:03:41.213Z,3.71
2022-10-29T14:05:13.183Z,3.61
2022-10-29T14:06:45.678Z,4.32
2022-10-29T14:08:17.704Z,4.00
2022-10-29T14:09:51.196Z,3.80
2022-10-29T14:11:24.149Z,4.02
2022-10-29T14:12:56.561Z,4.29
2022-10-29T14:14:28.336Z,3.94
2022-10-29T14:16:05.013Z,3.60
2022-10-29T14:17:41.732Z,3.89
2022-10-29T14:19:13.196Z,3.92
2022-10-29T14:20:45.179Z,4.06
2022-10-29T14:22:18.087Z,4.31
2022-10-29T14:24:00.573Z,3.85
2022-10-29T14:25:34.715Z,4.24
2022-10-29T14:27:06.572Z,4.04
2022-10-29T14:28:52.761Z,3.77
2022-10-29T14:30:29.599Z,3.96
2022-10-29T14:32:01.324Z,3.84
2022-10-29T14:33:32.804Z,4.31
2022-10-29T14:35:04.594Z,3.73
2022-10-29T14:36:36.256Z,3.93
2022-10-29T14:38:11.347Z,3.91
2022-10-29T14:39:57.160Z,3.79
2022-10-29T14:41:29.708Z,3.78
2022-10-29T14:43:01.597Z,4.18
2022-10-29T14:44:33.358Z,4.04
2022-10-29T14:46:05.066Z,4.00
2022-10-29T14:47:36.785Z,4.05
2022-10-29T14:49:08.437Z,4.35
2022-10-29T14:50:40.256Z,4.23
2022-10-29T14:52:11.776Z,4.30
2022-10-29T14:53:43.577Z,4.47
2022-10-29T14:55:15.141Z,4.58
2022-10-29T14:56:46.776Z,4.20
2022-10-29T14:58:18.318Z,3.72
2022-10-29T14:59:49.810Z,3.85
2022-10-29T15:01:21.385Z,4.05
2022-10-29T15:02:53.042Z,3.90
2022-10-29T15:04:24.686Z,4.25
2022-10-29T15:05:56.269Z,4.10
2022-10-29T15:07:27.756Z,4.12
2022-10-29T15:08:59.196Z,3.95
2022-10-29T15:10:30.712Z,4.19
2022-10-29T15:12:02.221Z,3.84
2022-10-29T15:13:33.689Z,3.87
2022-10-29T15:15:05.319Z,3.95
2022-10-29T15:16:39.826Z,3.83
2022-10-29T15:18:13.875Z,3.93
2022-10-29T15:19:45.408Z,4.23
2022-10-29T15:21:17.027Z,4.28
2022-10-29T15:22:48.638Z,4.43
2022-10-29T15:24:20.602Z,6.82
2022-10-29T15:25:52.444Z,5.67
2022-10-29T15:27:23.918Z,5.55
2022-10-29T15:28:55.540Z,5.55
2022-10-29T15:30:27.021Z,4.90
2022-10-29T15:31:58.598Z,5.36
2022-10-29T15:33:30.319Z,5.14
2022-10-29T15:35:02.021Z,5.14
2022-10-29T15:36:33.808Z,4.98
2022-10-29T15:38:05.369Z,5.06
2022-10-29T15:39:37.002Z,4.42
2022-10-29T15:41:08.527Z,4.83
2022-10-29T15:42:40.158Z,4.78
2022-10-29T15:44:11.639Z,4.72
2022-10-29T15:45:43.162Z,4.60
2022-10-29T15:47:14.614Z,4.30
2022-10-29T15:48:46.605Z,4.49
2022-10-29T15:50:18.137Z,5.08
2022-10-29T15:51:54.664Z,4.67
2022-10-29T15:53:26.386Z,4.29
2022-10-29T15:54:57.858Z,4.38
2022-10-29T15:56:29.503Z,4.67
2022-10-29T15:58:01.192Z,4.28
2022-10-29T15:59:33.017Z,4.70
2022-10-29T16:01:05.133Z,7.01
2022-10-29T16:02:36.685Z,19.45
2022-10-29T16:04:08.530Z,7.07
2022-10-29T16:05:40.004Z,4.42
2022-10-29T16:07:12.074Z,4.49
2022-10-29T16:08:48.601Z,4.44
2022-10-29T16:10:20.055Z,4.44
2022-10-29T16:11:51.799Z,4.77
2022-10-29T16:13:43.099Z,5.07
2022-10-29T16:15:20.323Z,5.20
2022-10-29T16:16:51.977Z,4.85
2022-10-29T16:18:48.912Z,5.08
2022-10-29T16:20:20.348Z,4.98
2022-10-29T16:22:19.166Z,4.91
2022-10-29T16:23:50.841Z,4.34
2022-10-29T16:25:22.341Z,4.44
2022-10-29T16:26:53.787Z,4.75
2022-10-29T16:28:25.317Z,4.55
2022-10-29T16:29:56.816Z,4.54
2022-10-29T16:31:28.244Z,4.45
2022-10-29T16:33:00.263Z,4.90
2022-10-29T16:34:32.011Z,4.95
2022-10-29T16:36:03.513Z,4.62
2022-10-29T16:37:45.176Z,4.51
2022-10-29T16:39:16.597Z,4.53
2022-10-29T16:40:48.022Z,4.62
2022-10-29T16:42:19.799Z,5.02
2022-10-29T16:43:51.306Z,5.02
2022-10-29T16:45:22.922Z,5.11
2022-10-29T16:46:54.617Z,5.20
2022-10-29T16:48:26.284Z,4.58
2022-10-29T16:49:58.060Z,4.72
2022-10-29T16:51:29.534Z,4.77
2022-10-29T16:53:01.276Z,4.98
2022-10-29T16:54:42.876Z,4.55
2022-10-29T16:56:14.315Z,4.15
2022-10-29T16:57:45.731Z,4.18
2022-10-29T16:59:17.368Z,4.55
2022-10-29T17:00:49.632Z,4.31
2022-10-29T17:02:21.492Z,4.57
2022-10-29T17:03:53.427Z,4.73
2022-10-29T17:05:25.007Z,4.51
2022-10-29T17:06:56.500Z,4.67
2022-10-29T17:08:28.077Z,4.68
2022-10-29T17:09:59.691Z,4.90
2022-10-29T17:11:31.103Z,4.11
2022-10-29T17:13:02.548Z,4.39
2022-10-29T17:14:33.988Z,4.85
2022-10-29T17:16:05.482Z,4.29
2022-10-29T17:17:38.161Z,4.47
2022-10-29T17:19:10.548Z,4.91
2022-10-29T17:20:47.103Z,4.69
2022-10-29T17:22:18.497Z,4.59
2022-10-29T17:23:49.991Z,4.08
2022-10-29T17:25:21.480Z,4.41
2022-10-29T17:26:52.991Z,4.53
2022-10-29T17:28:24.392Z,4.52
2022-10-29T17:29:56.302Z,4.38
2022-10-29T17:31:27.764Z,5.61
2022-10-29T17:33:00.215Z,4.20
2022-10-29T17:34:32.359Z,4.63
2022-10-29T17:36:03.711Z,4.39
2022-10-29T17:37:35.365Z,4.63
2022-10-29T17:39:06.817Z,4.28
2022-10-29T17:40:38.225Z,4.20
2022-10-29T17:42:09.966Z,4.09
2022-10-29T17:43:41.483Z,4.01
2022-10-29T17:45:12.911Z,4.12
2022-10-29T17:46:44.341Z,4.39
2022-10-29T17:48:18.647Z,4.59
2022-10-29T17:50:01.275Z,4.52
2022-10-29T17:51:32.914Z,4.15
2022-10-29T17:53:09.319Z,4.34
2022-10-29T17:54:40.854Z,4.40
2022-10-29T17:56:12.390Z,4.11
2022-10-29T17:57:43.847Z,4.22
2022-10-29T17:59:15.278Z,4.46
2022-10-29T18:00:46.744Z,4.53
2022-10-29T18:02:18.381Z,4.29
2022-10-29T18:03:49.855Z,4.25
2022-10-29T18:05:21.457Z,4.38
2022-10-29T18:06:52.945Z,4.74
2022-10-29T18:08:24.449Z,4.44
2022-10-29T18:09:55.968Z,4.31
2022-10-29T18:11:27.442Z,4.50
2022-10-29T18:12:58.923Z,4.56
2022-10-29T18:14:30.295Z,4.48
2022-10-29T18:16:01.692Z,4.64
2022-10-29T18:17:33.310Z,3.95
2022-10-29T18:19:04.834Z,4.07
2022-10-29T18:20:36.571Z,4.04
2022-10-29T18:22:08.108Z,3.82
2022-10-29T18:23:39.630Z,4.05
2022-10-29T18:25:24.703Z,3.87
2022-10-29T18:26:56.585Z,4.10
2022-10-29T18:28:28.860Z,3.97
2022-10-29T18:30:00.500Z,4.31
2022-10-29T18:31:32.466Z,4.10
2022-10-29T18:33:03.855Z,3.84
2022-10-29T18:34:35.309Z,4.26
2022-10-29T18:36:07.070Z,4.09
2022-10-29T18:37:38.489Z,4.21
2022-10-29T18:39:11.008Z,4.17
2022-10-29T18:40:42.668Z,4.32
2022-10-29T18:42:14.241Z,3.70
2022-10-29T18:43:46.281Z,5.11
2022-10-29T18:45:17.946Z,4.10
2022-10-29T18:46:49.524Z,4.10
2022-10-29T18:48:21.255Z,4.02
2022-10-29T18:49:52.818Z,4.29
2022-10-29T18:51:24.288Z,4.17
2022-10-29T18:53:01.191Z,4.47
2022-10-29T18:54:32.990Z,4.21
2022-10-29T18:56:04.471Z,4.38
2022-10-29T18:57:36.070Z,3.90
2022-10-29T18:59:17.558Z,4.05
2022-10-29T19:00:49.112Z,4.22
2022-10-29T19:02:25.743Z,4.17
2022-10-29T19:03:57.259Z,3.95
2022-10-29T19:05:28.783Z,4.13
2022-10-29T19:07:00.354Z,4.26
2022-10-29T19:08:31.815Z,4.06
2022-10-29T19:10:42.442Z,4.40
2022-10-29T19:12:19.143Z,4.32
2022-10-29T19:13:50.557Z,4.37
2022-10-29T19:15:22.386Z,4.13
2022-10-29T19:17:03.915Z,4.33
2022-10-29T19:19:07.824Z,4.21
2022-10-29T19:20:39.765Z,4.07
2022-10-29T19:22:11.325Z,3.99
2022-10-29T19:23:43.080Z,3.90
2022-10-29T19:25:25.123Z,4.05
2022-10-29T19:26:56.539Z,3.83
2022-10-29T19:28:27.926Z,3.81
2022-10-29T19:29:59.317Z,3.54
2022-10-29T19:31:31.139Z,3.66
2022-10-29T19:33:07.775Z,4.07
2022-10-29T19:34:39.974Z,3.94
2022-10-29T19:36:11.589Z,4.04
2022-10-29T19:37:43.001Z,3.82
2022-10-29T19:39:14.351Z,3.79
2022-10-29T19:40:45.956Z,3.76
2022-10-29T19:42:17.338Z,3.89
2022-10-29T19:43:48.905Z,4.40
2022-10-29T19:45:20.359Z,4.12
2022-10-29T19:46:51.809Z,4.13
2022-10-29T19:48:23.206Z,3.81
2022-10-29T19:50:04.602Z,4.14
2022-10-29T19:51:36.299Z,4.16
2022-10-29T19:53:08.372Z,3.73
2022-10-29T19:54:40.023Z,3.90
2022-10-29T19:56:11.755Z,4.10
2022-10-29T19:57:43.178Z,4.01
2022-10-29T19:59:14.727Z,3.74
2022-10-29T20:00:46.202Z,3.86
2022-10-29T20:02:17.844Z,4.17
2022-10-29T20:03:49.271Z,3.57
2022-10-29T20:05:20.755Z,3.82
2022-10-29T20:06:52.529Z,4.04
2022-10-29T20:08:23.983Z,4.24
2022-10-29T20:09:55.747Z,3.82
2022-10-29T20:11:27.136Z,3.37
2022-10-29T20:12:58.810Z,3.90
2022-10-29T20:14:30.290Z,4.00
2022-10-29T20:16:02.118Z,3.95
2022-10-29T20:17:33.628Z,4.12
2022-10-29T20:19:05.036Z,4.26
2022-10-29T20:20:36.473Z,4.05
2022-10-29T20:22:07.818Z,4.23
2022-10-29T20:23:39.687Z,4.09
2022-10-29T20:25:11.124Z,4.27
2022-10-29T20:26:42.592Z,4.42
2022-10-29T20:28:14.090Z,4.47
2022-10-29T20:29:45.536Z,4.48
2022-10-29T20:31:16.936Z,4.61
2022-10-29T20:32:48.336Z,4.30
2022-10-29T20:34:19.705Z,4.37
2022-10-29T20:35:51.415Z,4.43
2022-10-29T20:37:23.074Z,4.06
2022-10-29T20:38:54.563Z,3.53
2022-10-29T20:40:26.139Z,3.89
2022-10-29T20:41:57.519Z,3.81
2022-10-29T20:43:29.059Z,4.01